sensor_id;sensor_type;location;lat;lon;timestamp;P1;durP1;ratioP1;P2;durP2;ratioP2
10299;SDS011;5195;48.562;9.192;2023-04-01T00:00:29;5.13;;;0.93;;
10299;SDS011;5195;48.562;9.192;2023-04-01T00:02:54;1.87;;;1.20;;
10299;SDS011;5195;48.562;9.192;2023-04-01T00:05:20;2.70;;;1.20;;
10299;SDS011;5195;48.562;9.192;2023-04-01T00:07:45;1.73;;;0.93;;
10299;SDS011;5195;48.562;9.192;2023-04-01T00:10:12;2.47;;;1.00;;
10299;SDS011;5195;48.562;9.192;2023-04-01T00:12:38;2.73;;;0.90;;
10299;SDS011;5195;48.562;9.192;2023-04-01T00:15:03;2.35;;;1.08;;
10299;SDS011;5195;48.562;9.192;2023-04-01T00:17:29;1.40;;;0.97;;
10299;SDS011;5195;48.562;9.192;2023-04-01T00:19:55;1.92;;;0.88;;
10299;SDS011;5195;48.562;9.192;2023-04-01T00:22:20;1.70;;;0.98;;
10299;SDS011;5195;48.562;9.192;2023-04-01T00:24:45;1.75;;;0.90;;
10299;SDS011;5195;48.562;9.192;2023-04-01T00:27:11;3.50;;;0.95;;
10299;SDS011;5195;48.562;9.192;2023-04-01T00:29:36;1.37;;;0.80;;
10299;SDS011;5195;48.562;9.192;2023-04-01T00:32:02;1.08;;;0.60;;
10299;SDS011;5195;48.562;9.192;2023-04-01T00:34:27;1.10;;;0.63;;
10299;SDS011;5195;48.562;9.192;2023-04-01T00:36:53;1.17;;;0.87;;
10299;SDS011;5195;48.562;9.192;2023-04-01T00:39:21;0.57;;;0.47;;
10299;SDS011;5195;48.562;9.192;2023-04-01T00:41:48;0.97;;;0.83;;
10299;SDS011;5195;48.562;9.192;2023-04-01T00:44:18;1.43;;;0.67;;
10299;SDS011;5195;48.562;9.192;2023-04-01T00:46:46;1.48;;;0.73;;
10299;SDS011;5195;48.562;9.192;2023-04-01T00:49:12;1.17;;;0.70;;
10299;SDS011;5195;48.562;9.192;2023-04-01T00:51:37;1.53;;;0.47;;
10299;SDS011;5195;48.562;9.192;2023-04-01T00:54:04;1.40;;;0.80;;
10299;SDS011;5195;48.562;9.192;2023-04-01T00:56:32;2.45;;;0.90;;
10299;SDS011;5195;48.562;9.192;2023-04-01T00:59:00;1.77;;;0.90;;
10299;SDS011;5195;48.562;9.192;2023-04-01T01:01:25;2.03;;;0.90;;
10299;SDS011;5195;48.562;9.192;2023-04-01T01:03:53;1.87;;;0.80;;
10299;SDS011;5195;48.562;9.192;2023-04-01T01:09:21;1.43;;;0.90;;
10299;SDS011;5195;48.562;9.192;2023-04-01T01:11:51;3.07;;;0.80;;
10299;SDS011;5195;48.562;9.192;2023-04-01T01:19:54;1.67;;;0.90;;
10299;SDS011;5195;48.562;9.192;2023-04-01T01:22:41;1.20;;;0.57;;
10299;SDS011;5195;48.562;9.192;2023-04-01T01:33:28;1.48;;;0.70;;
10299;SDS011;5195;48.562;9.192;2023-04-01T01:35:56;1.17;;;0.60;;
10299;SDS011;5195;48.562;9.192;2023-04-01T01:38:23;2.47;;;0.70;;
10299;SDS011;5195;48.562;9.192;2023-04-01T01:40:48;1.63;;;0.60;;
10299;SDS011;5195;48.562;9.192;2023-04-01T01:43:16;1.90;;;0.70;;
10299;SDS011;5195;48.562;9.192;2023-04-01T01:45:40;1.30;;;0.70;;
10299;SDS011;5195;48.562;9.192;2023-04-01T01:48:05;1.35;;;0.60;;
10299;SDS011;5195;48.562;9.192;2023-04-01T01:50:31;1.23;;;0.50;;
10299;SDS011;5195;48.562;9.192;2023-04-01T01:53:01;0.80;;;0.60;;
10299;SDS011;5195;48.562;9.192;2023-04-01T01:55:33;0.60;;;0.50;;
10299;SDS011;5195;48.562;9.192;2023-04-01T01:57:58;0.80;;;0.47;;
10299;SDS011;5195;48.562;9.192;2023-04-01T02:00:23;0.90;;;0.50;;
10299;SDS011;5195;48.562;9.192;2023-04-01T02:02:48;0.55;;;0.30;;
10299;SDS011;5195;48.562;9.192;2023-04-01T02:05:17;0.50;;;0.40;;
10299;SDS011;5195;48.562;9.192;2023-04-01T02:07:42;0.50;;;0.20;;
10299;SDS011;5195;48.562;9.192;2023-04-01T02:10:07;1.00;;;0.40;;
10299;SDS011;5195;48.562;9.192;2023-04-01T02:12:33;0.83;;;0.40;;
10299;SDS011;5195;48.562;9.192;2023-04-01T02:15:06;0.80;;;0.40;;
10299;SDS011;5195;48.562;9.192;2023-04-01T02:17:35;0.93;;;0.40;;
10299;SDS011;5195;48.562;9.192;2023-04-01T02:20:02;0.30;;;0.30;;
10299;SDS011;5195;48.562;9.192;2023-04-01T02:22:35;0.53;;;0.40;;
10299;SDS011;5195;48.562;9.192;2023-04-01T02:25:02;0.53;;;0.20;;
10299;SDS011;5195;48.562;9.192;2023-04-01T02:27:26;0.30;;;0.30;;
10299;SDS011;5195;48.562;9.192;2023-04-01T02:29:52;0.60;;;0.40;;
10299;SDS011;5195;48.562;9.192;2023-04-01T02:32:18;1.23;;;0.30;;
10299;SDS011;5195;48.562;9.192;2023-04-01T02:34:43;0.30;;;0.27;;
10299;SDS011;5195;48.562;9.192;2023-04-01T02:37:08;0.25;;;0.20;;
10299;SDS011;5195;48.562;9.192;2023-04-01T02:39:34;1.36;;;0.30;;
10299;SDS011;5195;48.562;9.192;2023-04-01T02:41:59;0.40;;;0.20;;
10299;SDS011;5195;48.562;9.192;2023-04-01T02:44:25;0.35;;;0.35;;
10299;SDS011;5195;48.562;9.192;2023-04-01T02:46:50;1.10;;;0.43;;
10299;SDS011;5195;48.562;9.192;2023-04-01T02:49:16;0.43;;;0.22;;
10299;SDS011;5195;48.562;9.192;2023-04-01T02:51:42;0.40;;;0.30;;
10299;SDS011;5195;48.562;9.192;2023-04-01T02:54:07;0.32;;;0.17;;
10299;SDS011;5195;48.562;9.192;2023-04-01T02:56:33;0.50;;;0.30;;
10299;SDS011;5195;48.562;9.192;2023-04-01T02:58:58;0.30;;;0.30;;
10299;SDS011;5195;48.562;9.192;2023-04-01T03:01:24;0.35;;;0.32;;
10299;SDS011;5195;48.562;9.192;2023-04-01T03:03:49;0.53;;;0.30;;
10299;SDS011;5195;48.562;9.192;2023-04-01T03:06:15;0.37;;;0.20;;
10299;SDS011;5195;48.562;9.192;2023-04-01T03:08:41;1.00;;;0.10;;
10299;SDS011;5195;48.562;9.192;2023-04-01T03:11:06;0.30;;;0.20;;
10299;SDS011;5195;48.562;9.192;2023-04-01T03:13:32;0.80;;;0.37;;
10299;SDS011;5195;48.562;9.192;2023-04-01T03:15:57;0.30;;;0.30;;
10299;SDS011;5195;48.562;9.192;2023-04-01T03:18:24;0.70;;;0.20;;
10299;SDS011;5195;48.562;9.192;2023-04-01T03:20:50;0.20;;;0.20;;
10299;SDS011;5195;48.562;9.192;2023-04-01T03:23:15;0.10;;;0.10;;
10299;SDS011;5195;48.562;9.192;2023-04-01T03:25:41;0.20;;;0.20;;
10299;SDS011;5195;48.562;9.192;2023-04-01T03:28:06;0.10;;;0.10;;
10299;SDS011;5195;48.562;9.192;2023-04-01T03:30:33;0.37;;;0.20;;
10299;SDS011;5195;48.562;9.192;2023-04-01T03:32:58;0.20;;;0.20;;
10299;SDS011;5195;48.562;9.192;2023-04-01T03:35:24;0.10;;;0.10;;
10299;SDS011;5195;48.562;9.192;2023-04-01T03:37:50;1.40;;;0.10;;
10299;SDS011;5195;48.562;9.192;2023-04-01T03:40:17;0.30;;;0.10;;
10299;SDS011;5195;48.562;9.192;2023-04-01T03:42:42;2.20;;;0.37;;
10299;SDS011;5195;48.562;9.192;2023-04-01T03:45:08;0.45;;;0.22;;
10299;SDS011;5195;48.562;9.192;2023-04-01T03:47:34;0.70;;;0.20;;
10299;SDS011;5195;48.562;9.192;2023-04-01T03:49:59;0.75;;;0.30;;
10299;SDS011;5195;48.562;9.192;2023-04-01T03:52:25;1.10;;;0.20;;
10299;SDS011;5195;48.562;9.192;2023-04-01T03:54:51;0.30;;;0.30;;
10299;SDS011;5195;48.562;9.192;2023-04-01T03:57:16;0.37;;;0.30;;
10299;SDS011;5195;48.562;9.192;2023-04-01T03:59:42;1.00;;;0.30;;
10299;SDS011;5195;48.562;9.192;2023-04-01T04:02:07;0.20;;;0.20;;
10299;SDS011;5195;48.562;9.192;2023-04-01T04:04:33;0.30;;;0.30;;
10299;SDS011;5195;48.562;9.192;2023-04-01T04:06:58;0.20;;;0.10;;
10299;SDS011;5195;48.562;9.192;2023-04-01T04:09:25;1.27;;;0.30;;
10299;SDS011;5195;48.562;9.192;2023-04-01T04:11:52;0.75;;;0.37;;
10299;SDS011;5195;48.562;9.192;2023-04-01T04:14:17;0.17;;;0.17;;
10299;SDS011;5195;48.562;9.192;2023-04-01T04:16:43;0.10;;;0.10;;
10299;SDS011;5195;48.562;9.192;2023-04-01T04:19:09;1.17;;;0.30;;
10299;SDS011;5195;48.562;9.192;2023-04-01T04:21:35;0.40;;;0.30;;
10299;SDS011;5195;48.562;9.192;2023-04-01T04:24:00;0.43;;;0.40;;
10299;SDS011;5195;48.562;9.192;2023-04-01T04:26:26;0.62;;;0.22;;
10299;SDS011;5195;48.562;9.192;2023-04-01T04:28:51;0.67;;;0.40;;
10299;SDS011;5195;48.562;9.192;2023-04-01T04:31:20;1.50;;;0.40;;
10299;SDS011;5195;48.562;9.192;2023-04-01T04:33:46;0.47;;;0.30;;
10299;SDS011;5195;48.562;9.192;2023-04-01T04:36:11;0.70;;;0.45;;
10299;SDS011;5195;48.562;9.192;2023-04-01T04:38:37;0.95;;;0.43;;
10299;SDS011;5195;48.562;9.192;2023-04-01T04:41:03;1.45;;;0.45;;
10299;SDS011;5195;48.562;9.192;2023-04-01T04:43:28;0.40;;;0.40;;
10299;SDS011;5195;48.562;9.192;2023-04-01T04:45:56;0.77;;;0.40;;
10299;SDS011;5195;48.562;9.192;2023-04-01T04:48:22;2.23;;;0.60;;
10299;SDS011;5195;48.562;9.192;2023-04-01T04:50:48;1.62;;;0.68;;
10299;SDS011;5195;48.562;9.192;2023-04-01T04:53:14;0.70;;;0.57;;
10299;SDS011;5195;48.562;9.192;2023-04-01T04:55:44;0.77;;;0.53;;
10299;SDS011;5195;48.562;9.192;2023-04-01T04:58:09;0.70;;;0.50;;
10299;SDS011;5195;48.562;9.192;2023-04-01T05:00:35;0.80;;;0.50;;
10299;SDS011;5195;48.562;9.192;2023-04-01T05:03:00;0.50;;;0.50;;
10299;SDS011;5195;48.562;9.192;2023-04-01T05:05:27;0.67;;;0.37;;
10299;SDS011;5195;48.562;9.192;2023-04-01T05:07:53;0.70;;;0.45;;
10299;SDS011;5195;48.562;9.192;2023-04-01T05:10:18;1.60;;;0.63;;
10299;SDS011;5195;48.562;9.192;2023-04-01T05:12:44;1.75;;;0.80;;
10299;SDS011;5195;48.562;9.192;2023-04-01T05:15:09;0.73;;;0.70;;
10299;SDS011;5195;48.562;9.192;2023-04-01T05:17:36;1.43;;;0.60;;
10299;SDS011;5195;48.562;9.192;2023-04-01T05:20:01;2.03;;;0.70;;
10299;SDS011;5195;48.562;9.192;2023-04-01T05:22:27;1.42;;;0.70;;
10299;SDS011;5195;48.562;9.192;2023-04-01T05:24:52;1.55;;;0.70;;
10299;SDS011;5195;48.562;9.192;2023-04-01T05:27:18;0.97;;;0.63;;
10299;SDS011;5195;48.562;9.192;2023-04-01T05:29:44;1.05;;;0.65;;
10299;SDS011;5195;48.562;9.192;2023-04-01T05:32:09;1.15;;;0.55;;
10299;SDS011;5195;48.562;9.192;2023-04-01T05:34:35;1.80;;;0.60;;
10299;SDS011;5195;48.562;9.192;2023-04-01T05:37:01;0.90;;;0.50;;
10299;SDS011;5195;48.562;9.192;2023-04-01T05:39:27;1.10;;;0.43;;
10299;SDS011;5195;48.562;9.192;2023-04-01T05:41:52;1.27;;;0.50;;
10299;SDS011;5195;48.562;9.192;2023-04-01T05:44:18;0.80;;;0.40;;
10299;SDS011;5195;48.562;9.192;2023-04-01T05:46:43;0.70;;;0.40;;
10299;SDS011;5195;48.562;9.192;2023-04-01T05:49:09;0.45;;;0.40;;
10299;SDS011;5195;48.562;9.192;2023-04-01T05:51:34;0.57;;;0.37;;
10299;SDS011;5195;48.562;9.192;2023-04-01T05:54:00;0.30;;;0.30;;
10299;SDS011;5195;48.562;9.192;2023-04-01T05:56:26;0.67;;;0.27;;
10299;SDS011;5195;48.562;9.192;2023-04-01T05:58:53;0.40;;;0.40;;
10299;SDS011;5195;48.562;9.192;2023-04-01T06:01:18;0.33;;;0.30;;
10299;SDS011;5195;48.562;9.192;2023-04-01T06:03:43;0.20;;;0.20;;
10299;SDS011;5195;48.562;9.192;2023-04-01T06:06:19;0.32;;;0.30;;
10299;SDS011;5195;48.562;9.192;2023-04-01T06:08:41;0.57;;;0.40;;
10299;SDS011;5195;48.562;9.192;2023-04-01T06:16:32;0.60;;;0.40;;
10299;SDS011;5195;48.562;9.192;2023-04-01T06:24:35;0.80;;;0.50;;
10299;SDS011;5195;48.562;9.192;2023-04-01T06:27:24;1.17;;;0.47;;
10299;SDS011;5195;48.562;9.192;2023-04-01T06:32:54;0.43;;;0.40;;
10299;SDS011;5195;48.562;9.192;2023-04-01T06:35:19;0.80;;;0.30;;
10299;SDS011;5195;48.562;9.192;2023-04-01T06:45:52;0.65;;;0.40;;
10299;SDS011;5195;48.562;9.192;2023-04-01T06:51:14;0.52;;;0.40;;
10299;SDS011;5195;48.562;9.192;2023-04-01T06:53:43;0.60;;;0.43;;
10299;SDS011;5195;48.562;9.192;2023-04-01T06:56:09;1.00;;;0.60;;
10299;SDS011;5195;48.562;9.192;2023-04-01T06:58:34;1.10;;;0.50;;
10299;SDS011;5195;48.562;9.192;2023-04-01T07:01:04;0.70;;;0.60;;
10299;SDS011;5195;48.562;9.192;2023-04-01T07:03:40;3.10;;;2.90;;
10299;SDS011;5195;48.562;9.192;2023-04-01T07:06:05;1.53;;;1.43;;
10299;SDS011;5195;48.562;9.192;2023-04-01T07:08:30;0.60;;;0.60;;
10299;SDS011;5195;48.562;9.192;2023-04-01T07:11:06;1.90;;;1.80;;
10299;SDS011;5195;48.562;9.192;2023-04-01T07:13:32;0.80;;;0.70;;
10299;SDS011;5195;48.562;9.192;2023-04-01T07:16:16;2.50;;;2.33;;
10299;SDS011;5195;48.562;9.192;2023-04-01T07:21:45;1.97;;;1.87;;
10299;SDS011;5195;48.562;9.192;2023-04-01T07:24:46;3.83;;;3.63;;
10299;SDS011;5195;48.562;9.192;2023-04-01T07:26:41;2.60;;;2.40;;
10299;SDS011;5195;48.562;9.192;2023-04-01T07:29:12;1.25;;;0.90;;
10299;SDS011;5195;48.562;9.192;2023-04-01T07:36:59;1.03;;;0.87;;
10299;SDS011;5195;48.562;9.192;2023-04-01T07:50:32;1.50;;;1.10;;
10299;SDS011;5195;48.562;9.192;2023-04-01T08:06:27;1.50;;;1.30;;
10299;SDS011;5195;48.562;9.192;2023-04-01T08:08:59;1.70;;;1.07;;
10299;SDS011;5195;48.562;9.192;2023-04-01T08:14:23;1.00;;;1.00;;
10299;SDS011;5195;48.562;9.192;2023-04-01T08:19:21;0.73;;;0.70;;
10299;SDS011;5195;48.562;9.192;2023-04-01T08:21:49;0.90;;;0.70;;
10299;SDS011;5195;48.562;9.192;2023-04-01T08:24:18;1.63;;;0.60;;
10299;SDS011;5195;48.562;9.192;2023-04-01T08:26:54;1.47;;;1.37;;
10299;SDS011;5195;48.562;9.192;2023-04-01T08:29:20;0.80;;;0.80;;
10299;SDS011;5195;48.562;9.192;2023-04-01T08:31:56;0.63;;;0.63;;
10299;SDS011;5195;48.562;9.192;2023-04-01T08:34:21;1.93;;;1.77;;
10299;SDS011;5195;48.562;9.192;2023-04-01T08:36:50;0.60;;;0.33;;
10299;SDS011;5195;48.562;9.192;2023-04-01T08:39:16;0.80;;;0.70;;
10299;SDS011;5195;48.562;9.192;2023-04-01T08:55:38;2.13;;;2.03;;
10299;SDS011;5195;48.562;9.192;2023-04-01T09:00:46;0.83;;;0.83;;
10299;SDS011;5195;48.562;9.192;2023-04-01T09:03:26;0.70;;;0.70;;
10299;SDS011;5195;48.562;9.192;2023-04-01T09:08:48;0.60;;;0.53;;
10299;SDS011;5195;48.562;9.192;2023-04-01T09:22:21;1.95;;;1.85;;
10299;SDS011;5195;48.562;9.192;2023-04-01T09:24:52;0.80;;;0.80;;
10299;SDS011;5195;48.562;9.192;2023-04-01T09:36:02;2.03;;;1.70;;
10299;SDS011;5195;48.562;9.192;2023-04-01T09:38:39;2.25;;;2.05;;
10299;SDS011;5195;48.562;9.192;2023-04-01T09:44:11;0.47;;;0.47;;
10299;SDS011;5195;48.562;9.192;2023-04-01T09:49:40;1.15;;;0.60;;
10299;SDS011;5195;48.562;9.192;2023-04-01T10:09:13;0.80;;;0.50;;
10299;SDS011;5195;48.562;9.192;2023-04-01T10:11:55;0.40;;;0.40;;
10299;SDS011;5195;48.562;9.192;2023-04-01T10:14:34;1.35;;;0.88;;
10299;SDS011;5195;48.562;9.192;2023-04-01T10:29:26;0.30;;;0.30;;
10299;SDS011;5195;48.562;9.192;2023-04-01T10:38:19;0.52;;;0.52;;
10299;SDS011;5195;48.562;9.192;2023-04-01T10:41:09;0.47;;;0.47;;
10299;SDS011;5195;48.562;9.192;2023-04-01T10:55:53;0.60;;;0.43;;
10299;SDS011;5195;48.562;9.192;2023-04-01T10:58:30;1.30;;;0.40;;
10299;SDS011;5195;48.562;9.192;2023-04-01T11:16:13;2.20;;;2.10;;
10299;SDS011;5195;48.562;9.192;2023-04-01T11:30:49;1.13;;;1.13;;
10299;SDS011;5195;48.562;9.192;2023-04-01T11:33:22;0.70;;;0.70;;
10299;SDS011;5195;48.562;9.192;2023-04-01T11:36:14;2.00;;;1.90;;
10299;SDS011;5195;48.562;9.192;2023-04-01T11:38:56;1.73;;;1.63;;
10299;SDS011;5195;48.562;9.192;2023-04-01T11:42:01;0.80;;;0.77;;
10299;SDS011;5195;48.562;9.192;2023-04-01T11:44:32;0.80;;;0.70;;
10299;SDS011;5195;48.562;9.192;2023-04-01T11:55:55;0.40;;;0.40;;
10299;SDS011;5195;48.562;9.192;2023-04-01T12:01:39;0.90;;;0.90;;
10299;SDS011;5195;48.562;9.192;2023-04-01T12:09:58;0.80;;;0.80;;
10299;SDS011;5195;48.562;9.192;2023-04-01T12:18:52;0.30;;;0.30;;
10299;SDS011;5195;48.562;9.192;2023-04-01T12:21:37;1.20;;;0.50;;
10299;SDS011;5195;48.562;9.192;2023-04-01T12:32:41;1.20;;;0.60;;
10299;SDS011;5195;48.562;9.192;2023-04-01T12:35:37;0.40;;;0.40;;
10299;SDS011;5195;48.562;9.192;2023-04-01T12:38:15;0.40;;;0.40;;
10299;SDS011;5195;48.562;9.192;2023-04-01T12:40:48;0.57;;;0.40;;
10299;SDS011;5195;48.562;9.192;2023-04-01T12:43:28;0.40;;;0.40;;
10299;SDS011;5195;48.562;9.192;2023-04-01T12:49:47;0.30;;;0.30;;
10299;SDS011;5195;48.562;9.192;2023-04-01T12:52:39;0.10;;;0.10;;
10299;SDS011;5195;48.562;9.192;2023-04-01T13:09:22;0.30;;;0.30;;
10299;SDS011;5195;48.562;9.192;2023-04-01T13:17:41;0.30;;;0.20;;
10299;SDS011;5195;48.562;9.192;2023-04-01T13:20:14;0.60;;;0.10;;
10299;SDS011;5195;48.562;9.192;2023-04-01T13:23:01;0.20;;;0.20;;
10299;SDS011;5195;48.562;9.192;2023-04-01T13:28:35;0.60;;;0.60;;
10299;SDS011;5195;48.562;9.192;2023-04-01T13:31:46;0.20;;;0.20;;
10299;SDS011;5195;48.562;9.192;2023-04-01T13:33:38;0.20;;;0.20;;
10299;SDS011;5195;48.562;9.192;2023-04-01T13:45:09;0.40;;;0.40;;
10299;SDS011;5195;48.562;9.192;2023-04-01T14:00:54;0.37;;;0.20;;
10299;SDS011;5195;48.562;9.192;2023-04-01T14:11:51;0.20;;;0.20;;
10299;SDS011;5195;48.562;9.192;2023-04-01T14:14:36;0.30;;;0.30;;
10299;SDS011;5195;48.562;9.192;2023-04-01T14:17:08;0.68;;;0.30;;
10299;SDS011;5195;48.562;9.192;2023-04-01T14:23:05;0.20;;;0.20;;
10299;SDS011;5195;48.562;9.192;2023-04-01T14:48:17;0.47;;;0.33;;
10299;SDS011;5195;48.562;9.192;2023-04-01T14:53:29;0.37;;;0.30;;
10299;SDS011;5195;48.562;9.192;2023-04-01T14:55:55;0.70;;;0.30;;
10299;SDS011;5195;48.562;9.192;2023-04-01T14:58:24;0.65;;;0.40;;
10299;SDS011;5195;48.562;9.192;2023-04-01T15:03:47;0.40;;;0.40;;
10299;SDS011;5195;48.562;9.192;2023-04-01T15:09:51;0.30;;;0.30;;
10299;SDS011;5195;48.562;9.192;2023-04-01T15:12:26;0.60;;;0.60;;
10299;SDS011;5195;48.562;9.192;2023-04-01T15:23:25;0.30;;;0.30;;
10299;SDS011;5195;48.562;9.192;2023-04-01T15:31:45;0.60;;;0.40;;
10299;SDS011;5195;48.562;9.192;2023-04-01T15:42:40;0.70;;;0.53;;
10299;SDS011;5195;48.562;9.192;2023-04-01T15:47:55;0.70;;;0.70;;
10299;SDS011;5195;48.562;9.192;2023-04-01T15:55:39;0.93;;;0.63;;
10299;SDS011;5195;48.562;9.192;2023-04-01T16:12:40;0.83;;;0.77;;
10299;SDS011;5195;48.562;9.192;2023-04-01T16:26:01;0.43;;;0.43;;
10299;SDS011;5195;48.562;9.192;2023-04-01T16:28:47;0.57;;;0.40;;
10299;SDS011;5195;48.562;9.192;2023-04-01T16:31:07;0.65;;;0.47;;
10299;SDS011;5195;48.562;9.192;2023-04-01T16:34:03;2.17;;;0.43;;
10299;SDS011;5195;48.562;9.192;2023-04-01T16:36:32;1.17;;;0.60;;
10299;SDS011;5195;48.562;9.192;2023-04-01T16:41:35;0.40;;;0.40;;
10299;SDS011;5195;48.562;9.192;2023-04-01T16:46:38;0.85;;;0.60;;
10299;SDS011;5195;48.562;9.192;2023-04-01T16:51:47;0.50;;;0.50;;
10299;SDS011;5195;48.562;9.192;2023-04-01T16:54:50;0.75;;;0.52;;
10299;SDS011;5195;48.562;9.192;2023-04-01T16:57:17;0.60;;;0.47;;
10299;SDS011;5195;48.562;9.192;2023-04-01T17:02:23;1.07;;;0.70;;
10299;SDS011;5195;48.562;9.192;2023-04-01T17:05:04;0.40;;;0.40;;
10299;SDS011;5195;48.562;9.192;2023-04-01T17:10:30;2.08;;;0.70;;
10299;SDS011;5195;48.562;9.192;2023-04-01T17:16:17;0.60;;;0.60;;
10299;SDS011;5195;48.562;9.192;2023-04-01T17:22:21;0.47;;;0.47;;
10299;SDS011;5195;48.562;9.192;2023-04-01T17:35:33;0.73;;;0.70;;
10299;SDS011;5195;48.562;9.192;2023-04-01T17:38:25;0.83;;;0.70;;
10299;SDS011;5195;48.562;9.192;2023-04-01T17:45:55;0.70;;;0.70;;
10299;SDS011;5195;48.562;9.192;2023-04-01T17:48:24;1.10;;;0.82;;
10299;SDS011;5195;48.562;9.192;2023-04-01T17:53:30;1.10;;;0.90;;
10299;SDS011;5195;48.562;9.192;2023-04-01T18:01:20;0.67;;;0.67;;
10299;SDS011;5195;48.562;9.192;2023-04-01T18:06:56;0.80;;;0.80;;
10299;SDS011;5195;48.562;9.192;2023-04-01T18:09:44;0.90;;;0.90;;
10299;SDS011;5195;48.562;9.192;2023-04-01T18:12:01;0.75;;;0.75;;
10299;SDS011;5195;48.562;9.192;2023-04-01T18:14:50;1.83;;;0.97;;
10299;SDS011;5195;48.562;9.192;2023-04-01T18:17:24;1.07;;;0.70;;
10299;SDS011;5195;48.562;9.192;2023-04-01T18:20:07;0.70;;;0.70;;
10299;SDS011;5195;48.562;9.192;2023-04-01T18:22:48;0.90;;;0.80;;
10299;SDS011;5195;48.562;9.192;2023-04-01T18:25:24;0.62;;;0.62;;
10299;SDS011;5195;48.562;9.192;2023-04-01T18:30:34;1.42;;;0.70;;
10299;SDS011;5195;48.562;9.192;2023-04-01T18:33:02;0.73;;;0.73;;
10299;SDS011;5195;48.562;9.192;2023-04-01T18:35:33;0.93;;;0.88;;
10299;SDS011;5195;48.562;9.192;2023-04-01T18:38:29;1.43;;;1.33;;
10299;SDS011;5195;48.562;9.192;2023-04-01T18:43:54;1.35;;;1.25;;
10299;SDS011;5195;48.562;9.192;2023-04-01T18:54:23;1.77;;;1.67;;
10299;SDS011;5195;48.562;9.192;2023-04-01T18:57:03;1.40;;;0.70;;
10299;SDS011;5195;48.562;9.192;2023-04-01T18:59:43;1.17;;;0.70;;
10299;SDS011;5195;48.562;9.192;2023-04-01T19:02:14;0.40;;;0.40;;
10299;SDS011;5195;48.562;9.192;2023-04-01T19:07:50;3.03;;;0.70;;
10299;SDS011;5195;48.562;9.192;2023-04-01T19:09:53;0.90;;;0.65;;
10299;SDS011;5195;48.562;9.192;2023-04-01T19:15:19;0.40;;;0.40;;
10299;SDS011;5195;48.562;9.192;2023-04-01T19:17:49;0.50;;;0.50;;
10299;SDS011;5195;48.562;9.192;2023-04-01T19:21:12;1.30;;;1.20;;
10299;SDS011;5195;48.562;9.192;2023-04-01T19:25:23;1.70;;;1.13;;
10299;SDS011;5195;48.562;9.192;2023-04-01T19:28:48;0.83;;;0.80;;
10299;SDS011;5195;48.562;9.192;2023-04-01T19:33:17;0.47;;;0.47;;
10299;SDS011;5195;48.562;9.192;2023-04-01T19:38:43;0.80;;;0.80;;
10299;SDS011;5195;48.562;9.192;2023-04-01T19:41:17;0.60;;;0.50;;
10299;SDS011;5195;48.562;9.192;2023-04-01T19:43:53;0.60;;;0.60;;
10299;SDS011;5195;48.562;9.192;2023-04-01T19:46:32;1.90;;;0.60;;
10299;SDS011;5195;48.562;9.192;2023-04-01T19:52:02;0.90;;;0.80;;
10299;SDS011;5195;48.562;9.192;2023-04-01T19:59:35;1.23;;;0.80;;
10299;SDS011;5195;48.562;9.192;2023-04-01T20:04:53;0.80;;;0.70;;
10299;SDS011;5195;48.562;9.192;2023-04-01T20:09:54;0.67;;;0.67;;
10299;SDS011;5195;48.562;9.192;2023-04-01T20:12:33;0.70;;;0.70;;
10299;SDS011;5195;48.562;9.192;2023-04-01T20:14:58;0.90;;;0.90;;
10299;SDS011;5195;48.562;9.192;2023-04-01T20:17:21;1.50;;;1.05;;
10299;SDS011;5195;48.562;9.192;2023-04-01T20:20:00;1.00;;;0.87;;
10299;SDS011;5195;48.562;9.192;2023-04-01T20:25:15;1.27;;;0.80;;
10299;SDS011;5195;48.562;9.192;2023-04-01T20:27:49;0.98;;;0.88;;
10299;SDS011;5195;48.562;9.192;2023-04-01T20:41:14;0.87;;;0.80;;
10299;SDS011;5195;48.562;9.192;2023-04-01T20:46:30;0.73;;;0.70;;
10299;SDS011;5195;48.562;9.192;2023-04-01T20:51:38;1.40;;;0.90;;
10299;SDS011;5195;48.562;9.192;2023-04-01T20:56:55;0.80;;;0.80;;
10299;SDS011;5195;48.562;9.192;2023-04-01T21:21:21;0.97;;;0.73;;
10299;SDS011;5195;48.562;9.192;2023-04-01T21:23:49;0.87;;;0.87;;
10299;SDS011;5195;48.562;9.192;2023-04-01T21:34:34;1.13;;;1.03;;
10299;SDS011;5195;48.562;9.192;2023-04-01T21:45:19;1.10;;;1.10;;
10299;SDS011;5195;48.562;9.192;2023-04-01T21:50:55;1.33;;;1.23;;
10299;SDS011;5195;48.562;9.192;2023-04-01T21:56:22;1.37;;;1.27;;
10299;SDS011;5195;48.562;9.192;2023-04-01T22:07:38;1.60;;;1.50;;
10299;SDS011;5195;48.562;9.192;2023-04-01T22:10:05;2.12;;;1.52;;
10299;SDS011;5195;48.562;9.192;2023-04-01T22:13:04;1.50;;;1.40;;
10299;SDS011;5195;48.562;9.192;2023-04-01T22:15:20;1.60;;;1.50;;
10299;SDS011;5195;48.562;9.192;2023-04-01T22:17:53;1.58;;;1.48;;
10299;SDS011;5195;48.562;9.192;2023-04-01T22:28:09;1.13;;;1.00;;
10299;SDS011;5195;48.562;9.192;2023-04-01T22:30:41;1.77;;;1.12;;
10299;SDS011;5195;48.562;9.192;2023-04-01T22:33:12;1.23;;;0.97;;
10299;SDS011;5195;48.562;9.192;2023-04-01T22:35:40;0.93;;;0.85;;
10299;SDS011;5195;48.562;9.192;2023-04-01T22:43:54;1.27;;;1.10;;
10299;SDS011;5195;48.562;9.192;2023-04-01T22:46:20;1.42;;;1.10;;
10299;SDS011;5195;48.562;9.192;2023-04-01T22:49:01;0.90;;;0.90;;
10299;SDS011;5195;48.562;9.192;2023-04-01T22:51:43;0.83;;;0.83;;
10299;SDS011;5195;48.562;9.192;2023-04-01T22:56:49;0.80;;;0.80;;
10299;SDS011;5195;48.562;9.192;2023-04-01T22:59:35;0.70;;;0.70;;
10299;SDS011;5195;48.562;9.192;2023-04-01T23:01:58;0.70;;;0.70;;
10299;SDS011;5195;48.562;9.192;2023-04-01T23:04:29;0.80;;;0.80;;
10299;SDS011;5195;48.562;9.192;2023-04-01T23:06:52;1.55;;;0.62;;
10299;SDS011;5195;48.562;9.192;2023-04-01T23:09:23;0.73;;;0.73;;
10299;SDS011;5195;48.562;9.192;2023-04-01T23:14:52;0.60;;;0.60;;
10299;SDS011;5195;48.562;9.192;2023-04-01T23:17:36;0.70;;;0.70;;
10299;SDS011;5195;48.562;9.192;2023-04-01T23:20:32;0.87;;;0.70;;
10299;SDS011;5195;48.562;9.192;2023-04-01T23:25:56;1.37;;;0.70;;
10299;SDS011;5195;48.562;9.192;2023-04-01T23:28:39;0.87;;;0.87;;
10299;SDS011;5195;48.562;9.192;2023-04-01T23:31:25;0.70;;;0.70;;
10299;SDS011;5195;48.562;9.192;2023-04-01T23:34:01;0.70;;;0.70;;
10299;SDS011;5195;48.562;9.192;2023-04-01T23:36:52;0.90;;;0.70;;
10299;SDS011;5195;48.562;9.192;2023-04-01T23:39:37;0.30;;;0.30;;
10299;SDS011;5195;48.562;9.192;2023-04-01T23:42:13;0.50;;;0.50;;
10299;SDS011;5195;48.562;9.192;2023-04-01T23:44:56;0.93;;;0.90;;
10299;SDS011;5195;48.562;9.192;2023-04-01T23:47:35;0.60;;;0.60;;
10299;SDS011;5195;48.562;9.192;2023-04-01T23:50:11;0.60;;;0.60;;
10299;SDS011;5195;48.562;9.192;2023-04-01T23:52:52;0.63;;;0.50;;
10299;SDS011;5195;48.562;9.192;2023-04-01T23:55:25;0.50;;;0.50;;
